createdAt,value
2022-10-22T00:00:47.805Z,10.31
2022-10-22T00:02:22.679Z,10.33
2022-10-22T00:03:54.835Z,10.35
2022-10-22T00:05:26.755Z,10.39
2022-10-22T00:06:58.632Z,10.42
2022-10-22T00:08:30.651Z,10.43
2022-10-22T00:10:03.469Z,10.43
2022-10-22T00:11:35.521Z,10.45
2022-10-22T00:13:07.469Z,10.46
2022-10-22T00:14:39.586Z,10.49
2022-10-22T00:16:11.801Z,10.50
2022-10-22T00:17:43.776Z,10.52
2022-10-22T00:19:15.735Z,10.53
2022-10-22T00:20:47.656Z,10.54
2022-10-22T00:22:19.528Z,10.53
2022-10-22T00:23:51.403Z,10.53
2022-10-22T00:25:23.301Z,10.53
2022-10-22T00:26:55.168Z,10.53
2022-10-22T00:28:27.190Z,10.51
2022-10-22T00:29:59.062Z,10.50
2022-10-22T00:31:30.952Z,10.47
2022-10-22T00:33:02.917Z,10.41
2022-10-22T00:34:34.778Z,10.38
2022-10-22T00:36:06.929Z,10.32
2022-10-22T00:37:39.004Z,10.29
2022-10-22T00:39:10.959Z,10.25
2022-10-22T00:40:42.982Z,10.21
2022-10-22T00:42:22.481Z,10.18
2022-10-22T00:44:01.804Z,10.14
2022-10-22T00:45:33.754Z,10.12
2022-10-22T00:47:06.207Z,10.10
2022-10-22T00:48:38.082Z,10.07
2022-10-22T00:50:21.826Z,10.03
2022-10-22T00:51:53.745Z,10.02
2022-10-22T00:53:34.544Z,10.01
2022-10-22T00:55:06.693Z,10.01
2022-10-22T00:56:38.655Z,9.98
2022-10-22T00:58:10.826Z,9.97
2022-10-22T00:59:42.811Z,9.96
2022-10-22T01:01:18.068Z,9.93
2022-10-22T01:02:50.713Z,9.90
2022-10-22T01:04:22.637Z,9.90
2022-10-22T01:05:56.786Z,9.87
2022-10-22T01:07:28.838Z,9.83
2022-10-22T01:09:12.142Z,9.83
2022-10-22T01:10:49.906Z,9.82
2022-10-22T01:12:39.154Z,9.78
2022-10-22T01:14:15.623Z,9.76
2022-10-22T01:16:03.581Z,9.75
2022-10-22T01:18:07.806Z,9.74
2022-10-22T01:19:58.167Z,9.69
2022-10-22T01:21:47.937Z,9.66
2022-10-22T01:23:22.503Z,9.68
2022-10-22T01:25:07.876Z,9.67
2022-10-22T01:26:42.562Z,9.67
2022-10-22T01:28:37.956Z,9.68
2022-10-22T01:30:11.085Z,9.68
2022-10-22T01:31:45.222Z,9.70
2022-10-22T01:33:18.988Z,9.70
2022-10-22T01:34:53.517Z,9.72
2022-10-22T01:36:25.829Z,9.70
2022-10-22T01:38:00.094Z,9.70
2022-10-22T01:39:32.303Z,9.68
2022-10-22T01:41:04.543Z,9.65
2022-10-22T01:42:36.431Z,9.63
2022-10-22T01:44:22.725Z,9.60
2022-10-22T01:45:57.982Z,9.60
2022-10-22T01:47:29.805Z,9.61
2022-10-22T01:49:07.842Z,9.62
2022-10-22T01:50:42.800Z,9.64
2022-10-22T01:52:18.054Z,9.61
2022-10-22T01:53:52.754Z,9.57
2022-10-22T01:55:39.939Z,9.52
2022-10-22T01:57:11.811Z,9.48
2022-10-22T01:59:06.977Z,9.45
2022-10-22T02:00:40.839Z,9.44
2022-10-22T02:02:18.463Z,9.41
2022-10-22T02:03:55.466Z,9.42
2022-10-22T02:05:31.550Z,9.39
2022-10-22T02:07:05.122Z,9.41
2022-10-22T02:08:37.249Z,9.43
2022-10-22T02:10:10.296Z,9.39
2022-10-22T02:11:42.826Z,9.35
2022-10-22T02:13:35.018Z,9.28
2022-10-22T02:15:07.842Z,9.27
2022-10-22T02:16:42.170Z,9.26
2022-10-22T02:18:14.829Z,9.26
2022-10-22T02:20:06.963Z,9.24
2022-10-22T02:21:39.219Z,9.23
2022-10-22T02:23:11.401Z,9.24
2022-10-22T02:24:43.401Z,9.22
2022-10-22T02:26:27.932Z,9.23
2022-10-22T02:28:06.518Z,9.23
2022-10-22T02:29:40.186Z,9.22
2022-10-22T02:31:44.555Z,9.21
2022-10-22T02:33:36.788Z,9.22
2022-10-22T02:35:10.393Z,9.20
2022-10-22T02:36:46.716Z,9.20
2022-10-22T02:38:22.026Z,9.20
2022-10-22T02:39:54.628Z,9.20
2022-10-22T02:41:27.137Z,9.19
2022-10-22T02:42:59.130Z,9.17
2022-10-22T02:44:31.032Z,9.18
2022-10-22T02:46:03.067Z,9.19
2022-10-22T02:47:34.947Z,9.18
2022-10-22T02:49:06.962Z,9.17
2022-10-22T02:50:38.869Z,9.15
2022-10-22T02:52:10.758Z,9.12
2022-10-22T02:53:42.600Z,9.11
2022-10-22T02:55:14.755Z,9.11
2022-10-22T02:56:46.589Z,9.12
2022-10-22T02:58:19.475Z,9.15
2022-10-22T02:59:51.486Z,9.15
2022-10-22T03:01:23.526Z,9.13
2022-10-22T03:02:55.397Z,9.12
2022-10-22T03:04:27.361Z,9.11
2022-10-22T03:05:59.219Z,9.07
2022-10-22T03:07:31.164Z,9.08
2022-10-22T03:09:03.135Z,9.06
2022-10-22T03:10:35.051Z,9.05
2022-10-22T03:12:08.638Z,9.03
2022-10-22T03:13:40.748Z,9.01
2022-10-22T03:15:12.579Z,9.00
2022-10-22T03:16:44.510Z,9.01
2022-10-22T03:18:16.630Z,9.01
2022-10-22T03:19:48.544Z,9.00
2022-10-22T03:21:29.909Z,8.99
2022-10-22T03:23:02.385Z,8.99
2022-10-22T03:24:35.806Z,9.04
2022-10-22T03:26:08.442Z,9.08
2022-10-22T03:27:40.934Z,9.11
2022-10-22T03:29:15.103Z,9.11
2022-10-22T03:30:46.928Z,9.10
2022-10-22T03:32:18.891Z,9.08
2022-10-22T03:33:50.763Z,9.07
2022-10-22T03:35:22.744Z,9.06
2022-10-22T03:36:55.118Z,9.09
2022-10-22T03:38:26.981Z,9.08
2022-10-22T03:39:58.924Z,9.06
2022-10-22T03:41:31.026Z,9.01
2022-10-22T03:43:02.946Z,9.04
2022-10-22T03:44:36.546Z,9.05
2022-10-22T03:46:08.692Z,9.03
2022-10-22T03:47:40.879Z,9.05
2022-10-22T03:49:12.911Z,9.03
2022-10-22T03:50:44.793Z,9.03
2022-10-22T03:52:16.747Z,9.05
2022-10-22T03:53:48.777Z,9.04
2022-10-22T03:55:20.643Z,9.04
2022-10-22T03:56:52.553Z,9.03
2022-10-22T03:58:24.391Z,9.03
2022-10-22T03:59:56.371Z,9.03
2022-10-22T04:01:29.502Z,9.03
2022-10-22T04:03:01.486Z,9.05
2022-10-22T04:04:33.594Z,9.03
2022-10-22T04:06:07.431Z,8.99
2022-10-22T04:07:39.440Z,8.96
2022-10-22T04:09:11.583Z,8.93
2022-10-22T04:10:50.526Z,8.90
2022-10-22T04:12:22.391Z,8.87
2022-10-22T04:13:54.403Z,8.83
2022-10-22T04:15:28.202Z,8.82
2022-10-22T04:17:00.186Z,8.81
2022-10-22T04:18:32.179Z,8.83
2022-10-22T04:20:04.411Z,8.82
2022-10-22T04:21:36.373Z,8.81
2022-10-22T04:23:08.373Z,8.77
2022-10-22T04:24:40.296Z,8.77
2022-10-22T04:26:12.402Z,8.76
2022-10-22T04:27:44.355Z,8.75
2022-10-22T04:29:16.569Z,8.72
2022-10-22T04:30:48.529Z,8.70
2022-10-22T04:32:21.415Z,8.68
2022-10-22T04:33:57.493Z,8.68
2022-10-22T04:35:29.452Z,8.68
2022-10-22T04:37:01.292Z,8.68
2022-10-22T04:38:33.117Z,8.67
2022-10-22T04:40:05.319Z,8.65
2022-10-22T04:41:38.274Z,8.63
2022-10-22T04:43:10.230Z,8.63
2022-10-22T04:44:42.144Z,8.62
2022-10-22T04:46:15.864Z,8.64
2022-10-22T04:47:47.744Z,8.62
2022-10-22T04:49:20.274Z,8.63
2022-10-22T04:50:52.163Z,8.63
2022-10-22T04:52:24.064Z,8.63
2022-10-22T04:53:56.027Z,8.65
2022-10-22T04:55:28.014Z,8.66
2022-10-22T04:57:00.000Z,8.67
2022-10-22T04:58:31.912Z,8.65
2022-10-22T05:00:05.160Z,8.64
2022-10-22T05:01:41.743Z,8.64
2022-10-22T05:03:15.122Z,8.65
2022-10-22T05:04:47.073Z,8.67
2022-10-22T05:06:20.989Z,8.71
2022-10-22T05:07:53.098Z,8.75
2022-10-22T05:09:24.925Z,8.79
2022-10-22T05:10:56.811Z,8.86
2022-10-22T05:12:29.686Z,8.88
2022-10-22T05:14:02.746Z,8.91
2022-10-22T05:15:34.609Z,8.95
2022-10-22T05:17:06.527Z,8.96
2022-10-22T05:18:39.154Z,8.97
2022-10-22T05:20:11.194Z,8.97
2022-10-22T05:21:43.029Z,8.93
2022-10-22T05:23:14.969Z,8.90
2022-10-22T05:24:46.855Z,8.91
2022-10-22T05:26:20.032Z,8.88
2022-10-22T05:27:51.910Z,8.89
2022-10-22T05:29:24.221Z,8.90
2022-10-22T05:30:58.131Z,8.90
2022-10-22T05:32:30.082Z,8.91
2022-10-22T05:34:02.068Z,8.92
2022-10-22T05:35:34.005Z,8.94
2022-10-22T05:37:05.918Z,8.93
2022-10-22T05:38:37.873Z,8.95
2022-10-22T05:40:19.170Z,9.00
2022-10-22T05:41:51.561Z,9.03
2022-10-22T05:43:23.413Z,9.05
2022-10-22T05:44:55.312Z,9.07
2022-10-22T05:46:28.491Z,9.12
2022-10-22T05:48:00.474Z,9.15
2022-10-22T05:49:32.382Z,9.19
2022-10-22T05:51:06.170Z,9.25
2022-10-22T05:52:38.381Z,9.32
2022-10-22T05:54:15.684Z,9.38
2022-10-22T05:55:47.679Z,9.41
2022-10-22T05:57:19.567Z,9.49
2022-10-22T05:58:51.558Z,9.55
2022-10-22T06:00:23.577Z,9.62
2022-10-22T06:01:55.503Z,9.69
2022-10-22T06:03:28.874Z,9.75
2022-10-22T06:05:00.706Z,9.80
2022-10-22T06:06:34.112Z,9.88
2022-10-22T06:08:06.220Z,9.95
2022-10-22T06:09:39.062Z,10.00
2022-10-22T06:11:10.904Z,10.09
2022-10-22T06:12:43.214Z,10.17
2022-10-22T06:14:15.434Z,10.22
2022-10-22T06:15:47.390Z,10.27
2022-10-22T06:17:19.960Z,10.33
2022-10-22T06:18:52.439Z,10.41
2022-10-22T06:20:24.297Z,10.47
2022-10-22T06:21:56.245Z,10.52
2022-10-22T06:23:28.745Z,10.56
2022-10-22T06:25:00.651Z,10.61
2022-10-22T06:26:32.488Z,10.66
2022-10-22T06:28:05.162Z,10.71
2022-10-22T06:29:37.059Z,10.78
2022-10-22T06:31:09.928Z,10.88
2022-10-22T06:32:42.066Z,11.03
2022-10-22T06:34:14.650Z,11.16
2022-10-22T06:35:48.563Z,11.44
2022-10-22T06:37:20.483Z,11.68
2022-10-22T06:38:53.051Z,11.88
2022-10-22T06:40:25.058Z,12.05
2022-10-22T06:41:56.899Z,12.13
2022-10-22T06:43:29.375Z,12.12
2022-10-22T06:46:35.246Z,12.28
2022-10-22T06:48:07.398Z,12.44
2022-10-22T06:49:39.448Z,12.43
2022-10-22T06:51:12.088Z,12.37
2022-10-22T06:52:44.013Z,12.23
2022-10-22T06:54:15.910Z,12.12
2022-10-22T06:55:47.906Z,12.02
2022-10-22T06:57:19.855Z,11.89
2022-10-22T06:58:52.516Z,11.93
2022-10-22T07:00:24.772Z,12.01
2022-10-22T07:01:57.017Z,12.23
2022-10-22T07:03:29.122Z,12.43
2022-10-22T07:05:01.083Z,12.51
2022-10-22T07:06:33.105Z,12.60
2022-10-22T07:08:05.327Z,12.68
2022-10-22T07:09:39.378Z,12.72
2022-10-22T07:11:12.670Z,12.78
2022-10-22T07:12:44.592Z,12.85
2022-10-22T07:14:16.843Z,12.90
2022-10-22T07:15:55.171Z,12.97
2022-10-22T07:17:27.266Z,13.13
2022-10-22T07:18:59.826Z,13.23
2022-10-22T07:20:31.826Z,13.25
2022-10-22T07:22:03.711Z,13.21
2022-10-22T07:23:35.939Z,13.24
2022-10-22T07:25:07.980Z,13.20
2022-10-22T07:26:40.009Z,13.15
2022-10-22T07:28:12.078Z,13.24
2022-10-22T07:29:44.001Z,13.41
2022-10-22T07:31:17.449Z,13.40
2022-10-22T07:32:49.474Z,13.51
2022-10-22T07:34:21.489Z,13.62
2022-10-22T07:35:57.697Z,13.77
2022-10-22T07:37:29.834Z,13.85
2022-10-22T07:39:01.849Z,13.88
2022-10-22T07:40:34.070Z,13.84
2022-10-22T07:42:06.094Z,13.75
2022-10-22T07:43:38.025Z,13.76
2022-10-22T07:45:10.097Z,13.74
2022-10-22T07:46:43.503Z,13.75
2022-10-22T07:48:17.654Z,13.67
2022-10-22T07:49:49.520Z,13.68
2022-10-22T07:51:21.613Z,13.61
2022-10-22T07:52:56.035Z,13.56
2022-10-22T07:54:29.514Z,13.55
2022-10-22T07:56:01.649Z,13.43
2022-10-22T07:57:33.624Z,13.26
2022-10-22T07:59:05.493Z,13.18
2022-10-22T08:00:37.803Z,13.16
2022-10-22T08:02:10.080Z,13.15
2022-10-22T08:03:41.994Z,13.11
2022-10-22T08:05:13.855Z,13.06
2022-10-22T08:06:47.299Z,13.08
2022-10-22T08:08:20.095Z,13.07
2022-10-22T08:09:52.072Z,13.10
2022-10-22T08:11:23.951Z,13.09
2022-10-22T08:12:55.995Z,13.04
2022-10-22T08:14:28.070Z,13.07
2022-10-22T08:16:00.737Z,13.11
2022-10-22T08:17:32.685Z,13.08
2022-10-22T08:19:04.643Z,13.14
2022-10-22T08:20:36.592Z,13.21
2022-10-22T08:22:08.543Z,13.21
2022-10-22T08:23:40.431Z,13.23
2022-10-22T08:25:12.380Z,13.27
2022-10-22T08:26:44.215Z,13.35
2022-10-22T08:28:19.863Z,13.35
2022-10-22T08:29:54.271Z,13.39
2022-10-22T08:31:26.441Z,13.41
2022-10-22T08:32:58.335Z,13.40
2022-10-22T08:34:30.383Z,13.43
2022-10-22T08:36:02.385Z,13.45
2022-10-22T08:37:34.333Z,13.44
2022-10-22T08:39:06.264Z,13.41
2022-10-22T08:40:39.490Z,13.29
2022-10-22T08:42:11.346Z,13.24
2022-10-22T08:43:46.517Z,13.19
2022-10-22T08:45:23.091Z,13.11
2022-10-22T08:46:55.176Z,13.04
2022-10-22T08:48:27.172Z,12.99
2022-10-22T08:50:00.454Z,12.96
2022-10-22T08:51:36.343Z,12.98
2022-10-22T08:53:13.618Z,12.97
2022-10-22T08:54:45.427Z,12.94
2022-10-22T08:56:17.342Z,12.98
2022-10-22T08:57:52.133Z,13.01
2022-10-22T08:59:28.155Z,12.93
2022-10-22T09:01:05.922Z,12.97
2022-10-22T09:02:56.364Z,13.02
2022-10-22T09:04:35.829Z,13.06
2022-10-22T09:06:13.121Z,13.10
2022-10-22T09:07:50.054Z,13.09
2022-10-22T09:09:22.239Z,13.14
2022-10-22T09:11:12.585Z,13.18
2022-10-22T09:12:45.384Z,13.35
2022-10-22T09:14:22.323Z,13.45
2022-10-22T09:15:56.262Z,13.48
2022-10-22T09:17:36.789Z,13.54
2022-10-22T09:19:23.964Z,13.64
2022-10-22T09:21:01.714Z,13.66
2022-10-22T09:22:42.827Z,13.66
2022-10-22T09:24:25.953Z,13.59
2022-10-22T09:25:59.843Z,13.48
2022-10-22T09:27:32.085Z,13.43
2022-10-22T09:29:04.486Z,13.32
2022-10-22T09:30:38.378Z,13.26
2022-10-22T09:32:10.396Z,13.20
2022-10-22T09:33:43.964Z,13.17
2022-10-22T09:35:21.630Z,13.12
2022-10-22T09:37:00.513Z,13.08
2022-10-22T09:38:33.750Z,13.03
2022-10-22T09:40:05.957Z,12.95
2022-10-22T09:41:38.092Z,12.90
2022-10-22T09:43:12.343Z,12.88
2022-10-22T09:44:47.786Z,12.85
2022-10-22T09:46:21.957Z,12.83
2022-10-22T09:48:09.724Z,12.84
2022-10-22T09:49:42.823Z,12.80
2022-10-22T09:51:22.095Z,12.76
2022-10-22T09:53:00.044Z,12.72
2022-10-22T09:54:32.049Z,12.74
2022-10-22T09:56:07.895Z,12.68
2022-10-22T09:57:42.289Z,12.65
2022-10-22T09:59:16.159Z,12.60
2022-10-22T10:00:51.502Z,12.59
2022-10-22T10:02:37.999Z,12.60
2022-10-22T10:04:11.887Z,12.73
2022-10-22T10:05:46.730Z,12.87
2022-10-22T10:07:20.774Z,13.04
2022-10-22T10:08:52.747Z,13.20
2022-10-22T10:10:28.530Z,13.36
2022-10-22T10:12:11.645Z,13.48
2022-10-22T10:13:46.352Z,13.60
2022-10-22T10:15:27.581Z,13.66
2022-10-22T10:17:02.620Z,13.67
2022-10-22T10:18:43.909Z,13.65
2022-10-22T10:20:34.665Z,13.59
2022-10-22T10:22:21.709Z,13.52
2022-10-22T10:24:12.258Z,13.48
2022-10-22T10:25:44.143Z,13.44
2022-10-22T10:27:32.006Z,13.41
2022-10-22T10:29:12.589Z,13.38
2022-10-22T10:30:50.777Z,13.36
2022-10-22T10:32:34.863Z,13.26
2022-10-22T10:34:06.818Z,13.17
2022-10-22T10:35:52.345Z,13.08
2022-10-22T10:37:34.326Z,12.98
2022-10-22T10:39:12.822Z,12.95
2022-10-22T10:41:00.227Z,12.91
2022-10-22T10:42:41.158Z,12.87
2022-10-22T10:44:20.208Z,12.84
2022-10-22T10:46:05.708Z,12.80
2022-10-22T10:47:56.452Z,12.75
2022-10-22T10:49:31.529Z,12.70
2022-10-22T10:51:07.290Z,12.66
2022-10-22T10:52:48.578Z,12.65
2022-10-22T10:54:23.115Z,12.67
2022-10-22T10:56:01.905Z,12.70
2022-10-22T10:57:52.364Z,12.77
2022-10-22T10:59:26.933Z,12.85
2022-10-22T11:01:03.874Z,12.92
2022-10-22T11:02:38.745Z,12.95
2022-10-22T11:04:22.452Z,12.98
2022-10-22T11:05:55.521Z,13.04
2022-10-22T11:07:35.373Z,13.01
2022-10-22T11:09:16.639Z,13.04
2022-10-22T11:10:50.520Z,13.08
2022-10-22T11:12:26.159Z,13.11
2022-10-22T11:13:58.134Z,13.15
2022-10-22T11:15:33.204Z,13.21
2022-10-22T11:17:09.766Z,13.27
2022-10-22T11:18:49.882Z,13.33
2022-10-22T11:20:27.685Z,13.39
2022-10-22T11:22:05.262Z,13.41
2022-10-22T11:23:41.044Z,13.42
2022-10-22T11:25:12.895Z,13.43
2022-10-22T11:26:55.820Z,13.40
2022-10-22T11:28:35.501Z,13.38
2022-10-22T11:30:15.105Z,13.41
2022-10-22T11:31:47.440Z,13.42
2022-10-22T11:33:21.971Z,13.46
2022-10-22T11:34:59.670Z,13.47
2022-10-22T11:38:12.366Z,13.51
2022-10-22T11:39:49.023Z,13.55
2022-10-22T11:41:25.119Z,13.62
2022-10-22T11:42:58.206Z,13.78
2022-10-22T11:44:30.403Z,13.93
2022-10-22T11:46:08.259Z,14.09
2022-10-22T11:47:58.978Z,14.24
2022-10-22T11:49:44.658Z,14.38
2022-10-22T11:51:36.254Z,14.46
2022-10-22T11:53:31.082Z,14.55
2022-10-22T11:55:03.877Z,14.67
2022-10-22T11:56:39.247Z,14.75
2022-10-22T11:58:30.674Z,14.84
2022-10-22T12:00:06.456Z,14.92
2022-10-22T12:01:48.023Z,14.99
2022-10-22T12:03:41.073Z,15.00
2022-10-22T12:05:22.110Z,14.99
2022-10-22T12:06:54.016Z,14.97
2022-10-22T12:08:26.568Z,14.90
2022-10-22T12:09:58.598Z,14.85
2022-10-22T12:11:40.860Z,14.82
2022-10-22T12:13:15.603Z,14.75
2022-10-22T12:14:57.638Z,14.75
2022-10-22T12:16:54.569Z,14.74
2022-10-22T12:18:31.661Z,14.67
2022-10-22T12:20:13.189Z,14.62
2022-10-22T12:21:48.710Z,14.56
2022-10-22T12:23:23.050Z,14.49
2022-10-22T12:24:57.816Z,14.43
2022-10-22T12:28:11.438Z,14.36
2022-10-22T12:29:43.291Z,14.34
2022-10-22T12:31:18.114Z,14.34
2022-10-22T12:32:57.248Z,14.31
2022-10-22T12:34:29.538Z,14.37
2022-10-22T12:36:04.157Z,14.43
2022-10-22T12:37:40.278Z,14.46
2022-10-22T12:39:14.283Z,14.48
2022-10-22T12:40:48.684Z,14.52
2022-10-22T12:42:23.914Z,14.57
2022-10-22T12:43:59.450Z,14.59
2022-10-22T12:45:32.783Z,14.61
2022-10-22T12:47:06.231Z,14.65
2022-10-22T12:48:40.293Z,14.62
2022-10-22T12:50:17.998Z,14.60
2022-10-22T12:51:50.131Z,14.61
2022-10-22T12:53:30.629Z,14.65
2022-10-22T12:55:05.582Z,14.66
2022-10-22T12:56:37.978Z,14.69
2022-10-22T12:58:16.411Z,14.72
2022-10-22T12:59:50.143Z,14.75
2022-10-22T13:01:22.304Z,14.81
2022-10-22T13:02:54.504Z,14.82
2022-10-22T13:04:26.858Z,14.82
2022-10-22T13:06:11.950Z,14.84
2022-10-22T13:07:51.675Z,14.90
2022-10-22T13:09:27.429Z,14.98
2022-10-22T13:11:06.898Z,15.08
2022-10-22T13:12:44.214Z,15.12
2022-10-22T13:14:27.122Z,15.16
2022-10-22T13:16:13.000Z,15.15
2022-10-22T13:17:45.325Z,15.10
2022-10-22T13:19:37.229Z,15.03
2022-10-22T13:21:27.961Z,14.93
2022-10-22T13:23:03.488Z,14.84
2022-10-22T13:24:39.203Z,14.74
2022-10-22T13:26:14.932Z,14.65
2022-10-22T13:27:47.921Z,14.56
2022-10-22T13:29:21.130Z,14.50
2022-10-22T13:30:54.539Z,14.44
2022-10-22T13:32:26.481Z,14.38
2022-10-22T13:34:02.430Z,14.31
2022-10-22T13:35:38.285Z,14.24
2022-10-22T13:37:10.259Z,14.16
2022-10-22T13:38:42.943Z,14.08
2022-10-22T13:40:15.308Z,14.00
2022-10-22T13:41:47.977Z,13.93
2022-10-22T13:43:20.233Z,13.87
2022-10-22T13:44:52.168Z,13.85
2022-10-22T13:46:25.048Z,13.81
2022-10-22T13:47:57.175Z,13.75
2022-10-22T13:49:29.202Z,13.72
2022-10-22T13:51:01.256Z,13.68
2022-10-22T13:52:40.610Z,13.63
2022-10-22T13:54:17.633Z,13.63
2022-10-22T13:55:50.443Z,13.59
2022-10-22T13:57:22.488Z,13.59
2022-10-22T13:58:54.505Z,13.55
2022-10-22T14:00:26.597Z,13.54
2022-10-22T14:01:58.621Z,13.54
2022-10-22T14:03:32.326Z,13.50
2022-10-22T14:05:08.557Z,13.49
2022-10-22T14:06:40.503Z,13.47
2022-10-22T14:08:14.129Z,13.48
2022-10-22T14:09:46.122Z,13.47
2022-10-22T14:11:18.109Z,13.47
2022-10-22T14:12:53.250Z,13.47
2022-10-22T14:14:25.676Z,13.49
2022-10-22T14:15:57.611Z,13.49
2022-10-22T14:17:29.761Z,13.51
2022-10-22T14:19:02.565Z,13.52
2022-10-22T14:20:36.437Z,13.54
2022-10-22T14:22:13.188Z,13.53
2022-10-22T14:23:46.332Z,13.51
2022-10-22T14:25:22.461Z,13.50
2022-10-22T14:26:54.360Z,13.46
2022-10-22T14:28:26.237Z,13.44
2022-10-22T14:30:01.645Z,13.43
2022-10-22T14:31:33.634Z,13.43
2022-10-22T14:33:14.802Z,13.43
2022-10-22T14:34:46.989Z,13.42
2022-10-22T14:36:19.354Z,13.40
2022-10-22T14:37:51.608Z,13.40
2022-10-22T14:39:23.488Z,13.39
2022-10-22T14:40:55.890Z,13.35
2022-10-22T14:42:28.588Z,13.32
2022-10-22T14:44:00.441Z,13.29
2022-10-22T14:45:32.468Z,13.27
2022-10-22T14:47:04.554Z,13.25
2022-10-22T14:48:36.427Z,13.22
2022-10-22T14:50:08.443Z,13.20
2022-10-22T14:51:40.457Z,13.18
2022-10-22T14:53:13.797Z,13.17
2022-10-22T14:54:45.832Z,13.15
2022-10-22T14:56:18.630Z,13.13
2022-10-22T14:57:50.504Z,13.10
2022-10-22T14:59:22.400Z,13.08
2022-10-22T15:00:54.302Z,13.04
2022-10-22T15:02:26.534Z,13.01
2022-10-22T15:03:58.426Z,12.98
2022-10-22T15:05:30.338Z,12.93
2022-10-22T15:07:02.381Z,12.87
2022-10-22T15:08:34.331Z,12.82
2022-10-22T15:10:06.965Z,12.77
2022-10-22T15:11:38.991Z,12.73
2022-10-22T15:13:11.101Z,12.69
2022-10-22T15:14:42.955Z,12.65
2022-10-22T15:16:16.421Z,12.62
2022-10-22T15:17:48.263Z,12.57
2022-10-22T15:19:20.306Z,12.54
2022-10-22T15:20:59.856Z,12.50
2022-10-22T15:22:35.098Z,12.45
2022-10-22T15:24:07.172Z,12.40
2022-10-22T15:25:43.420Z,12.34
2022-10-22T15:27:15.704Z,12.28
2022-10-22T15:28:47.635Z,12.24
2022-10-22T15:30:20.793Z,12.20
2022-10-22T15:31:54.806Z,12.16
2022-10-22T15:33:27.484Z,12.13
2022-10-22T15:34:59.588Z,12.09
2022-10-22T15:36:31.778Z,12.06
2022-10-22T15:38:06.567Z,12.01
2022-10-22T15:39:42.138Z,11.98
2022-10-22T15:41:14.001Z,11.94
2022-10-22T15:42:46.678Z,11.90
2022-10-22T15:44:19.900Z,11.87
2022-10-22T15:46:02.893Z,11.83
2022-10-22T15:47:34.807Z,11.80
2022-10-22T15:49:06.690Z,11.78
2022-10-22T15:50:38.753Z,11.75
2022-10-22T15:52:10.848Z,11.72
2022-10-22T15:53:42.961Z,11.68
2022-10-22T15:55:14.914Z,11.66
2022-10-22T15:56:47.052Z,11.62
2022-10-22T15:58:19.313Z,11.60
2022-10-22T15:59:52.120Z,11.58
2022-10-22T16:01:25.325Z,11.54
2022-10-22T16:02:57.254Z,11.51
2022-10-22T16:04:29.136Z,11.49
2022-10-22T16:06:01.268Z,11.46
2022-10-22T16:07:33.121Z,11.43
2022-10-22T16:09:06.601Z,11.42
2022-10-22T16:10:38.649Z,11.40
2022-10-22T16:12:12.193Z,11.35
2022-10-22T16:13:46.063Z,11.33
2022-10-22T16:15:17.945Z,11.30
2022-10-22T16:16:51.305Z,11.27
2022-10-22T16:18:23.732Z,11.27
2022-10-22T16:19:55.690Z,11.24
2022-10-22T16:21:27.825Z,11.21
2022-10-22T16:22:59.781Z,11.20
2022-10-22T16:24:32.003Z,11.17
2022-10-22T16:26:03.890Z,11.14
2022-10-22T16:27:35.786Z,11.13
2022-10-22T16:29:08.550Z,11.10
2022-10-22T16:30:41.698Z,11.08
2022-10-22T16:32:13.665Z,11.06
2022-10-22T16:33:47.943Z,11.04
2022-10-22T16:35:22.095Z,11.00
2022-10-22T16:36:56.332Z,10.97
2022-10-22T16:38:28.795Z,10.95
2022-10-22T16:40:04.374Z,10.92
2022-10-22T16:41:40.185Z,10.89
2022-10-22T16:43:12.223Z,10.87
2022-10-22T16:44:44.258Z,10.85
2022-10-22T16:46:17.155Z,10.82
2022-10-22T16:47:49.629Z,10.81
2022-10-22T16:49:21.619Z,10.79
2022-10-22T16:50:53.521Z,10.77
2022-10-22T16:52:25.379Z,10.75
2022-10-22T16:53:57.684Z,10.74
2022-10-22T16:55:29.647Z,10.71
2022-10-22T16:57:01.561Z,10.68
2022-10-22T16:58:33.895Z,10.67
2022-10-22T17:00:06.006Z,10.65
2022-10-22T17:01:40.919Z,10.64
2022-10-22T17:03:13.285Z,10.62
2022-10-22T17:04:45.165Z,10.61
2022-10-22T17:06:17.158Z,10.59
2022-10-22T17:07:49.261Z,10.60
2022-10-22T17:09:21.421Z,10.58
2022-10-22T17:10:53.635Z,10.57
2022-10-22T17:12:25.631Z,10.56
2022-10-22T17:13:57.550Z,10.54
2022-10-22T17:15:29.495Z,10.52
2022-10-22T17:17:01.437Z,10.49
2022-10-22T17:18:34.670Z,10.45
2022-10-22T17:20:07.104Z,10.44
2022-10-22T17:21:39.273Z,10.39
2022-10-22T17:23:11.226Z,10.36
2022-10-22T17:24:43.983Z,10.34
2022-10-22T17:26:17.510Z,10.31
2022-10-22T17:27:49.489Z,10.28
2022-10-22T17:29:22.246Z,10.24
2022-10-22T17:31:11.783Z,10.16
2022-10-22T17:32:44.144Z,10.09
2022-10-22T17:34:16.945Z,10.02
2022-10-22T17:35:52.595Z,9.95
2022-10-22T17:37:24.478Z,9.89
2022-10-22T17:38:57.693Z,9.85
2022-10-22T17:40:30.819Z,9.81
2022-10-22T17:42:02.810Z,9.77
2022-10-22T17:43:37.983Z,9.75
2022-10-22T17:45:10.277Z,9.69
2022-10-22T17:46:43.847Z,9.64
2022-10-22T17:48:15.885Z,9.56
2022-10-22T17:49:47.836Z,9.53
2022-10-22T17:51:20.608Z,9.47
2022-10-22T17:52:52.549Z,9.43
2022-10-22T17:54:24.478Z,9.40
2022-10-22T17:56:00.689Z,9.38
2022-10-22T17:57:32.652Z,9.36
2022-10-22T17:59:04.705Z,9.37
2022-10-22T18:00:36.715Z,9.38
2022-10-22T18:02:10.342Z,9.39
2022-10-22T18:03:42.261Z,9.44
2022-10-22T18:05:14.297Z,9.45
2022-10-22T18:06:47.188Z,9.48
2022-10-22T18:08:19.176Z,9.51
2022-10-22T18:09:51.145Z,9.54
2022-10-22T18:11:24.365Z,9.59
2022-10-22T18:12:56.365Z,9.62
2022-10-22T18:14:28.510Z,9.67
2022-10-22T18:16:00.994Z,9.73
2022-10-22T18:17:35.841Z,9.78
2022-10-22T18:19:11.524Z,9.84
2022-10-22T18:20:48.065Z,9.90
2022-10-22T18:22:20.129Z,9.97
2022-10-22T18:23:52.286Z,10.01
2022-10-22T18:25:24.249Z,10.06
2022-10-22T18:26:56.298Z,10.11
2022-10-22T18:28:28.264Z,10.16
2022-10-22T18:30:00.206Z,10.22
2022-10-22T18:31:32.843Z,10.28
2022-10-22T18:33:04.991Z,10.35
2022-10-22T18:34:37.674Z,10.43
2022-10-22T18:36:10.882Z,10.50
2022-10-22T18:37:43.102Z,10.58
2022-10-22T18:39:15.851Z,10.66
2022-10-22T18:40:48.304Z,10.73
2022-10-22T18:42:20.391Z,10.81
2022-10-22T18:43:52.586Z,10.90
2022-10-22T18:45:24.581Z,11.00
2022-10-22T18:46:56.631Z,11.11
2022-10-22T18:48:28.938Z,11.21
2022-10-22T18:50:00.845Z,11.28
2022-10-22T18:51:34.594Z,11.38
2022-10-22T18:53:06.580Z,11.47
2022-10-22T18:54:38.639Z,11.54
2022-10-22T18:56:11.610Z,11.63
2022-10-22T18:57:43.518Z,11.70
2022-10-22T18:59:18.407Z,11.75
2022-10-22T19:00:50.680Z,11.79
2022-10-22T19:02:22.763Z,11.83
2022-10-22T19:03:55.081Z,11.88
2022-10-22T19:05:27.206Z,11.90
2022-10-22T19:06:59.217Z,11.94
2022-10-22T19:08:31.182Z,11.96
2022-10-22T19:10:03.780Z,11.97
2022-10-22T19:11:36.050Z,11.98
2022-10-22T19:13:08.057Z,11.99
2022-10-22T19:14:39.992Z,12.01
2022-10-22T19:16:15.522Z,12.05
2022-10-22T19:17:47.417Z,12.10
2022-10-22T19:19:20.293Z,12.12
2022-10-22T19:20:57.771Z,12.13
2022-10-22T19:22:29.998Z,12.15
2022-10-22T19:24:02.518Z,12.16
2022-10-22T19:25:34.737Z,12.19
2022-10-22T19:27:06.709Z,12.21
2022-10-22T19:28:39.019Z,12.23
2022-10-22T19:30:11.163Z,12.25
2022-10-22T19:31:43.199Z,12.26
2022-10-22T19:33:15.200Z,12.28
2022-10-22T19:34:47.272Z,12.27
2022-10-22T19:36:19.797Z,12.25
2022-10-22T19:37:52.275Z,12.22
2022-10-22T19:39:24.206Z,12.18
2022-10-22T19:40:56.274Z,12.14
2022-10-22T19:42:28.173Z,12.09
2022-10-22T19:44:00.461Z,12.05
2022-10-22T19:45:32.395Z,12.00
2022-10-22T19:47:04.366Z,11.95
2022-10-22T19:48:36.980Z,11.89
2022-10-22T19:50:08.995Z,11.81
2022-10-22T19:51:41.041Z,11.73
2022-10-22T19:53:12.977Z,11.64
2022-10-22T19:54:45.773Z,11.53
2022-10-22T19:56:20.205Z,11.43
2022-10-22T19:57:52.088Z,11.34
2022-10-22T19:59:27.255Z,11.25
2022-10-22T20:01:04.831Z,11.17
2022-10-22T20:02:37.055Z,11.10
2022-10-22T20:04:13.943Z,11.02
2022-10-22T20:05:46.643Z,10.98
2022-10-22T20:07:18.674Z,10.94
2022-10-22T20:08:53.741Z,10.90
2022-10-22T20:10:27.968Z,10.87
2022-10-22T20:12:00.262Z,10.82
2022-10-22T20:13:32.277Z,10.78
2022-10-22T20:15:04.502Z,10.74
2022-10-22T20:16:36.729Z,10.71
2022-10-22T20:18:08.668Z,10.68
2022-10-22T20:19:40.574Z,10.63
2022-10-22T20:21:13.774Z,10.60
2022-10-22T20:22:46.188Z,10.56
2022-10-22T20:24:18.250Z,10.54
2022-10-22T20:25:50.155Z,10.52
2022-10-22T20:27:22.089Z,10.50
2022-10-22T20:28:57.293Z,10.46
2022-10-22T20:30:29.240Z,10.44
2022-10-22T20:32:02.398Z,10.40